sensor_id;sensor_type;location;lat;lon;timestamp;P1;durP1;ratioP1;P2;durP2;ratioP2
18378;SDS011;27025;51.986;5.984;2022-12-18T00:01:35;75.18;;;49.15;;
18378;SDS011;27025;51.986;5.984;2022-12-18T00:04:02;67.93;;;38.60;;
18378;SDS011;27025;51.986;5.984;2022-12-18T00:06:29;66.43;;;37.37;;
18378;SDS011;27025;51.986;5.984;2022-12-18T00:08:55;75.57;;;49.72;;
18378;SDS011;27025;51.986;5.984;2022-12-18T00:11:23;67.27;;;37.70;;
18378;SDS011;27025;51.986;5.984;2022-12-18T00:13:49;64.80;;;37.28;;
18378;SDS011;27025;51.986;5.984;2022-12-18T00:16:16;72.50;;;45.45;;
18378;SDS011;27025;51.986;5.984;2022-12-18T00:18:45;74.55;;;48.17;;
18378;SDS011;27025;51.986;5.984;2022-12-18T00:21:11;73.55;;;49.53;;
18378;SDS011;27025;51.986;5.984;2022-12-18T00:23:38;73.22;;;48.70;;
18378;SDS011;27025;51.986;5.984;2022-12-18T00:26:06;68.20;;;47.20;;
18378;SDS011;27025;51.986;5.984;2022-12-18T00:28:33;74.05;;;47.35;;
18378;SDS011;27025;51.986;5.984;2022-12-18T00:33:28;71.40;;;47.63;;
18378;SDS011;27025;51.986;5.984;2022-12-18T00:35:54;70.72;;;47.88;;
18378;SDS011;27025;51.986;5.984;2022-12-18T00:38:20;73.17;;;48.47;;
18378;SDS011;27025;51.986;5.984;2022-12-18T00:40:46;72.43;;;46.08;;
18378;SDS011;27025;51.986;5.984;2022-12-18T00:43:12;72.25;;;47.47;;
18378;SDS011;27025;51.986;5.984;2022-12-18T00:45:38;72.17;;;47.57;;
18378;SDS011;27025;51.986;5.984;2022-12-18T00:48:04;71.63;;;47.33;;
18378;SDS011;27025;51.986;5.984;2022-12-18T00:50:30;67.97;;;47.08;;
18378;SDS011;27025;51.986;5.984;2022-12-18T00:52:56;71.68;;;47.63;;
18378;SDS011;27025;51.986;5.984;2022-12-18T00:55:22;71.97;;;48.08;;
18378;SDS011;27025;51.986;5.984;2022-12-18T00:57:48;67.15;;;47.22;;
18378;SDS011;27025;51.986;5.984;2022-12-18T01:00:16;68.60;;;46.70;;
18378;SDS011;27025;51.986;5.984;2022-12-18T01:02:42;68.37;;;46.90;;
18378;SDS011;27025;51.986;5.984;2022-12-18T01:05:10;68.50;;;46.38;;
18378;SDS011;27025;51.986;5.984;2022-12-18T01:07:36;68.55;;;46.40;;
18378;SDS011;27025;51.986;5.984;2022-12-18T01:10:02;67.63;;;46.20;;
18378;SDS011;27025;51.986;5.984;2022-12-18T01:12:28;65.55;;;46.72;;
18378;SDS011;27025;51.986;5.984;2022-12-18T01:14:54;65.35;;;44.58;;
18378;SDS011;27025;51.986;5.984;2022-12-18T01:17:21;67.35;;;45.55;;
18378;SDS011;27025;51.986;5.984;2022-12-18T01:19:47;62.47;;;44.28;;
18378;SDS011;27025;51.986;5.984;2022-12-18T01:22:13;65.95;;;44.75;;
18378;SDS011;27025;51.986;5.984;2022-12-18T01:24:39;62.25;;;43.42;;
18378;SDS011;27025;51.986;5.984;2022-12-18T01:27:05;64.47;;;43.70;;
18378;SDS011;27025;51.986;5.984;2022-12-18T01:29:31;63.30;;;43.80;;
18378;SDS011;27025;51.986;5.984;2022-12-18T01:31:57;66.18;;;44.97;;
18378;SDS011;27025;51.986;5.984;2022-12-18T01:34:23;63.22;;;43.10;;
18378;SDS011;27025;51.986;5.984;2022-12-18T01:36:49;60.85;;;42.42;;
18378;SDS011;27025;51.986;5.984;2022-12-18T01:39:19;68.30;;;47.08;;
18378;SDS011;27025;51.986;5.984;2022-12-18T01:41:45;70.18;;;47.28;;
18378;SDS011;27025;51.986;5.984;2022-12-18T01:47:13;86.03;;;50.47;;
18378;SDS011;27025;51.986;5.984;2022-12-18T01:49:40;79.57;;;50.25;;
18378;SDS011;27025;51.986;5.984;2022-12-18T01:52:06;83.23;;;50.23;;
18378;SDS011;27025;51.986;5.984;2022-12-18T01:54:32;116.53;;;51.10;;
18378;SDS011;27025;51.986;5.984;2022-12-18T01:56:59;104.80;;;52.15;;
18378;SDS011;27025;51.986;5.984;2022-12-18T01:59:26;96.40;;;52.33;;
18378;SDS011;27025;51.986;5.984;2022-12-18T02:01:52;87.70;;;51.10;;
18378;SDS011;27025;51.986;5.984;2022-12-18T02:04:22;84.85;;;50.53;;
18378;SDS011;27025;51.986;5.984;2022-12-18T02:07:04;80.43;;;48.88;;
18378;SDS011;27025;51.986;5.984;2022-12-18T02:09:38;82.60;;;49.15;;
18378;SDS011;27025;51.986;5.984;2022-12-18T02:27:23;70.30;;;44.70;;
18378;SDS011;27025;51.986;5.984;2022-12-18T02:29:51;68.63;;;44.42;;
18378;SDS011;27025;51.986;5.984;2022-12-18T02:32:18;67.07;;;44.43;;
18378;SDS011;27025;51.986;5.984;2022-12-18T02:34:45;69.38;;;44.60;;
18378;SDS011;27025;51.986;5.984;2022-12-18T02:37:12;71.78;;;45.85;;
18378;SDS011;27025;51.986;5.984;2022-12-18T02:39:40;70.18;;;45.17;;
18378;SDS011;27025;51.986;5.984;2022-12-18T02:42:07;66.80;;;43.40;;
18378;SDS011;27025;51.986;5.984;2022-12-18T02:44:43;66.25;;;42.85;;
18378;SDS011;27025;51.986;5.984;2022-12-18T02:47:13;66.28;;;43.38;;
18378;SDS011;27025;51.986;5.984;2022-12-18T02:52:23;62.33;;;42.17;;
18378;SDS011;27025;51.986;5.984;2022-12-18T02:57:36;59.95;;;41.17;;
18378;SDS011;27025;51.986;5.984;2022-12-18T03:00:08;61.95;;;40.90;;
18378;SDS011;27025;51.986;5.984;2022-12-18T03:02:41;58.28;;;40.03;;
18378;SDS011;27025;51.986;5.984;2022-12-18T03:05:19;53.95;;;38.05;;
18378;SDS011;27025;51.986;5.984;2022-12-18T03:08:33;55.17;;;37.33;;
18378;SDS011;27025;51.986;5.984;2022-12-18T03:10:34;55.60;;;38.15;;
18378;SDS011;27025;51.986;5.984;2022-12-18T03:13:02;53.83;;;38.67;;
18378;SDS011;27025;51.986;5.984;2022-12-18T03:15:36;54.58;;;37.72;;
18378;SDS011;27025;51.986;5.984;2022-12-18T03:18:05;52.22;;;36.85;;
18378;SDS011;27025;51.986;5.984;2022-12-18T03:20:32;49.25;;;35.92;;
18378;SDS011;27025;51.986;5.984;2022-12-18T03:23:08;49.08;;;35.50;;
18378;SDS011;27025;51.986;5.984;2022-12-18T03:25:35;48.45;;;34.92;;
18378;SDS011;27025;51.986;5.984;2022-12-18T03:28:04;47.38;;;34.50;;
18378;SDS011;27025;51.986;5.984;2022-12-18T03:30:33;48.22;;;34.75;;
18378;SDS011;27025;51.986;5.984;2022-12-18T03:33:05;48.28;;;34.63;;
18378;SDS011;27025;51.986;5.984;2022-12-18T03:35:34;43.97;;;32.83;;
18378;SDS011;27025;51.986;5.984;2022-12-18T03:38:01;47.13;;;32.55;;
18378;SDS011;27025;51.986;5.984;2022-12-18T03:40:30;43.10;;;31.25;;
18378;SDS011;27025;51.986;5.984;2022-12-18T03:43:07;43.90;;;32.75;;
18378;SDS011;27025;51.986;5.984;2022-12-18T03:45:37;43.47;;;31.02;;
18378;SDS011;27025;51.986;5.984;2022-12-18T03:50:36;42.60;;;30.80;;
18378;SDS011;27025;51.986;5.984;2022-12-18T03:55:32;37.27;;;22.90;;
18378;SDS011;27025;51.986;5.984;2022-12-18T03:58:01;38.08;;;28.52;;
18378;SDS011;27025;51.986;5.984;2022-12-18T04:00:27;40.28;;;29.48;;
18378;SDS011;27025;51.986;5.984;2022-12-18T04:02:54;41.50;;;29.65;;
18378;SDS011;27025;51.986;5.984;2022-12-18T04:05:21;38.38;;;29.33;;
18378;SDS011;27025;51.986;5.984;2022-12-18T04:07:48;39.58;;;29.02;;
18378;SDS011;27025;51.986;5.984;2022-12-18T04:10:15;39.13;;;28.38;;
18378;SDS011;27025;51.986;5.984;2022-12-18T04:12:41;37.00;;;28.30;;
18378;SDS011;27025;51.986;5.984;2022-12-18T04:15:08;35.95;;;24.20;;
18378;SDS011;27025;51.986;5.984;2022-12-18T04:17:34;37.70;;;27.05;;
18378;SDS011;27025;51.986;5.984;2022-12-18T04:20:00;35.53;;;26.58;;
18378;SDS011;27025;51.986;5.984;2022-12-18T04:22:26;33.28;;;26.52;;
18378;SDS011;27025;51.986;5.984;2022-12-18T04:24:52;35.50;;;26.63;;
18378;SDS011;27025;51.986;5.984;2022-12-18T04:27:18;34.53;;;25.63;;
18378;SDS011;27025;51.986;5.984;2022-12-18T04:32:21;36.53;;;26.20;;
18378;SDS011;27025;51.986;5.984;2022-12-18T04:34:47;33.55;;;24.95;;
18378;SDS011;27025;51.986;5.984;2022-12-18T04:37:13;32.40;;;24.58;;
18378;SDS011;27025;51.986;5.984;2022-12-18T04:39:39;31.20;;;24.67;;
18378;SDS011;27025;51.986;5.984;2022-12-18T04:42:05;32.25;;;24.85;;
18378;SDS011;27025;51.986;5.984;2022-12-18T04:44:31;33.20;;;24.63;;
18378;SDS011;27025;51.986;5.984;2022-12-18T04:46:57;31.60;;;23.63;;
18378;SDS011;27025;51.986;5.984;2022-12-18T04:49:23;30.95;;;23.48;;
18378;SDS011;27025;51.986;5.984;2022-12-18T04:51:49;29.40;;;23.60;;
18378;SDS011;27025;51.986;5.984;2022-12-18T04:54:16;30.98;;;23.25;;
18378;SDS011;27025;51.986;5.984;2022-12-18T04:56:42;29.60;;;22.73;;
18378;SDS011;27025;51.986;5.984;2022-12-18T04:59:08;28.58;;;22.33;;
18378;SDS011;27025;51.986;5.984;2022-12-18T05:01:34;29.60;;;22.85;;
18378;SDS011;27025;51.986;5.984;2022-12-18T05:04:01;28.03;;;18.53;;
18378;SDS011;27025;51.986;5.984;2022-12-18T05:06:27;29.43;;;18.07;;
18378;SDS011;27025;51.986;5.984;2022-12-18T05:08:53;29.25;;;21.40;;
18378;SDS011;27025;51.986;5.984;2022-12-18T05:11:19;26.30;;;18.17;;
18378;SDS011;27025;51.986;5.984;2022-12-18T05:13:45;28.20;;;22.23;;
18378;SDS011;27025;51.986;5.984;2022-12-18T05:16:11;26.30;;;18.60;;
18378;SDS011;27025;51.986;5.984;2022-12-18T05:18:37;26.53;;;17.13;;
18378;SDS011;27025;51.986;5.984;2022-12-18T05:21:04;25.20;;;16.13;;
18378;SDS011;27025;51.986;5.984;2022-12-18T05:23:30;29.17;;;22.15;;
18378;SDS011;27025;51.986;5.984;2022-12-18T05:25:57;28.17;;;21.80;;
18378;SDS011;27025;51.986;5.984;2022-12-18T05:28:23;28.20;;;21.70;;
18378;SDS011;27025;51.986;5.984;2022-12-18T05:30:50;26.70;;;17.77;;
18378;SDS011;27025;51.986;5.984;2022-12-18T05:33:16;26.60;;;17.27;;
18378;SDS011;27025;51.986;5.984;2022-12-18T05:35:43;24.63;;;16.90;;
18378;SDS011;27025;51.986;5.984;2022-12-18T05:38:09;27.20;;;15.93;;
18378;SDS011;27025;51.986;5.984;2022-12-18T05:40:35;25.93;;;16.57;;
18378;SDS011;27025;51.986;5.984;2022-12-18T05:43:01;25.27;;;16.57;;
18378;SDS011;27025;51.986;5.984;2022-12-18T05:45:27;26.23;;;16.90;;
18378;SDS011;27025;51.986;5.984;2022-12-18T05:47:53;25.03;;;16.70;;
18378;SDS011;27025;51.986;5.984;2022-12-18T05:50:19;24.47;;;15.77;;
18378;SDS011;27025;51.986;5.984;2022-12-18T05:52:45;22.80;;;15.80;;
18378;SDS011;27025;51.986;5.984;2022-12-18T05:55:11;27.03;;;16.20;;
18378;SDS011;27025;51.986;5.984;2022-12-18T05:57:37;23.93;;;15.73;;
18378;SDS011;27025;51.986;5.984;2022-12-18T06:00:03;22.73;;;16.00;;
18378;SDS011;27025;51.986;5.984;2022-12-18T06:02:30;26.07;;;16.77;;
18378;SDS011;27025;51.986;5.984;2022-12-18T06:04:56;23.40;;;16.33;;
18378;SDS011;27025;51.986;5.984;2022-12-18T06:07:22;27.17;;;17.57;;
18378;SDS011;27025;51.986;5.984;2022-12-18T06:09:48;26.43;;;17.40;;
18378;SDS011;27025;51.986;5.984;2022-12-18T06:12:16;26.20;;;16.47;;
18378;SDS011;27025;51.986;5.984;2022-12-18T06:14:42;28.17;;;20.65;;
18378;SDS011;27025;51.986;5.984;2022-12-18T06:17:09;26.90;;;19.20;;
18378;SDS011;27025;51.986;5.984;2022-12-18T06:19:35;25.17;;;17.13;;
18378;SDS011;27025;51.986;5.984;2022-12-18T06:22:01;25.57;;;16.80;;
18378;SDS011;27025;51.986;5.984;2022-12-18T06:24:27;26.07;;;17.30;;
18378;SDS011;27025;51.986;5.984;2022-12-18T06:26:53;26.37;;;16.33;;
18378;SDS011;27025;51.986;5.984;2022-12-18T06:29:19;25.33;;;17.27;;
18378;SDS011;27025;51.986;5.984;2022-12-18T06:31:45;25.83;;;16.93;;
18378;SDS011;27025;51.986;5.984;2022-12-18T06:34:11;24.47;;;16.20;;
18378;SDS011;27025;51.986;5.984;2022-12-18T06:36:37;26.83;;;16.63;;
18378;SDS011;27025;51.986;5.984;2022-12-18T06:39:03;26.50;;;16.80;;
18378;SDS011;27025;51.986;5.984;2022-12-18T06:41:29;26.57;;;17.33;;
18378;SDS011;27025;51.986;5.984;2022-12-18T06:43:55;24.17;;;16.07;;
18378;SDS011;27025;51.986;5.984;2022-12-18T06:46:22;25.73;;;16.43;;
18378;SDS011;27025;51.986;5.984;2022-12-18T06:48:49;29.05;;;22.27;;
18378;SDS011;27025;51.986;5.984;2022-12-18T06:51:19;29.10;;;22.20;;
18378;SDS011;27025;51.986;5.984;2022-12-18T06:53:45;30.67;;;23.80;;
18378;SDS011;27025;51.986;5.984;2022-12-18T06:56:11;28.83;;;22.15;;
18378;SDS011;27025;51.986;5.984;2022-12-18T06:58:38;27.60;;;18.10;;
18378;SDS011;27025;51.986;5.984;2022-12-18T07:01:04;23.80;;;17.03;;
18378;SDS011;27025;51.986;5.984;2022-12-18T07:03:30;23.33;;;16.00;;
18378;SDS011;27025;51.986;5.984;2022-12-18T07:05:57;28.53;;;21.80;;
18378;SDS011;27025;51.986;5.984;2022-12-18T07:08:23;27.40;;;21.25;;
18378;SDS011;27025;51.986;5.984;2022-12-18T07:10:51;26.90;;;21.45;;
18378;SDS011;27025;51.986;5.984;2022-12-18T07:13:22;26.55;;;21.27;;
18378;SDS011;27025;51.986;5.984;2022-12-18T07:15:48;24.60;;;16.50;;
18378;SDS011;27025;51.986;5.984;2022-12-18T07:18:14;23.10;;;15.90;;
18378;SDS011;27025;51.986;5.984;2022-12-18T07:20:40;25.52;;;17.10;;
18378;SDS011;27025;51.986;5.984;2022-12-18T07:23:06;25.27;;;20.53;;
18378;SDS011;27025;51.986;5.984;2022-12-18T07:25:35;24.77;;;20.75;;
18378;SDS011;27025;51.986;5.984;2022-12-18T07:28:02;23.87;;;17.47;;
18378;SDS011;27025;51.986;5.984;2022-12-18T07:30:29;26.00;;;16.93;;
18378;SDS011;27025;51.986;5.984;2022-12-18T07:32:55;22.57;;;15.83;;
18378;SDS011;27025;51.986;5.984;2022-12-18T07:35:21;25.30;;;15.97;;
18378;SDS011;27025;51.986;5.984;2022-12-18T07:37:47;24.33;;;16.33;;
18378;SDS011;27025;51.986;5.984;2022-12-18T07:40:13;26.67;;;16.23;;
18378;SDS011;27025;51.986;5.984;2022-12-18T07:42:39;25.50;;;16.93;;
18378;SDS011;27025;51.986;5.984;2022-12-18T07:45:05;25.57;;;16.07;;
18378;SDS011;27025;51.986;5.984;2022-12-18T07:47:31;24.70;;;17.07;;
18378;SDS011;27025;51.986;5.984;2022-12-18T07:49:59;22.93;;;16.20;;
18378;SDS011;27025;51.986;5.984;2022-12-18T07:52:25;25.60;;;17.13;;
18378;SDS011;27025;51.986;5.984;2022-12-18T07:54:51;31.63;;;17.47;;
18378;SDS011;27025;51.986;5.984;2022-12-18T07:57:17;27.93;;;18.17;;
18378;SDS011;27025;51.986;5.984;2022-12-18T07:59:43;26.30;;;17.37;;
18378;SDS011;27025;51.986;5.984;2022-12-18T08:02:09;27.15;;;18.08;;
18378;SDS011;27025;51.986;5.984;2022-12-18T08:04:35;26.17;;;17.03;;
18378;SDS011;27025;51.986;5.984;2022-12-18T08:07:01;25.33;;;17.07;;
18378;SDS011;27025;51.986;5.984;2022-12-18T08:09:27;26.20;;;17.40;;
18378;SDS011;27025;51.986;5.984;2022-12-18T08:11:53;27.90;;;16.80;;
18378;SDS011;27025;51.986;5.984;2022-12-18T08:14:19;28.50;;;21.50;;
18378;SDS011;27025;51.986;5.984;2022-12-18T08:16:45;24.73;;;17.97;;
18378;SDS011;27025;51.986;5.984;2022-12-18T08:19:11;24.53;;;17.30;;
18378;SDS011;27025;51.986;5.984;2022-12-18T08:21:37;26.53;;;20.53;;
18378;SDS011;27025;51.986;5.984;2022-12-18T08:24:04;26.05;;;20.67;;
18378;SDS011;27025;51.986;5.984;2022-12-18T08:26:30;25.67;;;20.35;;
18378;SDS011;27025;51.986;5.984;2022-12-18T08:28:57;25.70;;;19.90;;
18378;SDS011;27025;51.986;5.984;2022-12-18T08:31:24;25.23;;;20.27;;
18378;SDS011;27025;51.986;5.984;2022-12-18T08:33:50;24.27;;;20.10;;
18378;SDS011;27025;51.986;5.984;2022-12-18T08:36:17;26.00;;;19.33;;
18378;SDS011;27025;51.986;5.984;2022-12-18T08:38:44;24.23;;;19.92;;
18378;SDS011;27025;51.986;5.984;2022-12-18T08:41:11;24.00;;;19.07;;
18378;SDS011;27025;51.986;5.984;2022-12-18T08:43:37;23.98;;;18.98;;
18378;SDS011;27025;51.986;5.984;2022-12-18T08:46:23;21.75;;;17.70;;
18378;SDS011;27025;51.986;5.984;2022-12-18T08:48:50;19.42;;;15.85;;
18378;SDS011;27025;51.986;5.984;2022-12-18T08:51:16;19.42;;;15.80;;
18378;SDS011;27025;51.986;5.984;2022-12-18T08:53:43;19.17;;;15.00;;
18378;SDS011;27025;51.986;5.984;2022-12-18T08:56:09;16.92;;;13.23;;
18378;SDS011;27025;51.986;5.984;2022-12-18T08:58:36;18.17;;;14.50;;
18378;SDS011;27025;51.986;5.984;2022-12-18T09:01:02;15.93;;;13.30;;
18378;SDS011;27025;51.986;5.984;2022-12-18T09:03:28;12.90;;;10.07;;
18378;SDS011;27025;51.986;5.984;2022-12-18T09:05:55;14.53;;;10.47;;
18378;SDS011;27025;51.986;5.984;2022-12-18T09:08:21;15.18;;;12.15;;
18378;SDS011;27025;51.986;5.984;2022-12-18T09:10:47;14.63;;;10.83;;
18378;SDS011;27025;51.986;5.984;2022-12-18T09:13:14;14.25;;;10.10;;
18378;SDS011;27025;51.986;5.984;2022-12-18T09:15:47;12.65;;;10.60;;
18378;SDS011;27025;51.986;5.984;2022-12-18T09:18:14;13.13;;;11.23;;
18378;SDS011;27025;51.986;5.984;2022-12-18T09:20:40;13.13;;;11.05;;
18378;SDS011;27025;51.986;5.984;2022-12-18T09:23:06;13.63;;;11.20;;
18378;SDS011;27025;51.986;5.984;2022-12-18T09:25:33;14.83;;;11.30;;
18378;SDS011;27025;51.986;5.984;2022-12-18T09:28:01;13.43;;;10.73;;
18378;SDS011;27025;51.986;5.984;2022-12-18T09:30:27;12.82;;;11.10;;
18378;SDS011;27025;51.986;5.984;2022-12-18T09:32:53;12.95;;;11.13;;
18378;SDS011;27025;51.986;5.984;2022-12-18T09:35:19;13.30;;;9.60;;
18378;SDS011;27025;51.986;5.984;2022-12-18T09:37:45;13.03;;;10.87;;
18378;SDS011;27025;51.986;5.984;2022-12-18T09:40:15;13.85;;;11.30;;
18378;SDS011;27025;51.986;5.984;2022-12-18T09:42:42;12.40;;;9.10;;
18378;SDS011;27025;51.986;5.984;2022-12-18T09:45:12;12.90;;;9.13;;
18378;SDS011;27025;51.986;5.984;2022-12-18T09:47:39;13.23;;;11.07;;
18378;SDS011;27025;51.986;5.984;2022-12-18T09:50:19;13.57;;;9.83;;
18378;SDS011;27025;51.986;5.984;2022-12-18T09:52:48;13.67;;;9.47;;
18378;SDS011;27025;51.986;5.984;2022-12-18T09:55:23;12.77;;;9.53;;
18378;SDS011;27025;51.986;5.984;2022-12-18T09:57:55;15.32;;;10.40;;
18378;SDS011;27025;51.986;5.984;2022-12-18T10:00:23;20.80;;;10.50;;
18378;SDS011;27025;51.986;5.984;2022-12-18T10:02:53;16.33;;;11.80;;
18378;SDS011;27025;51.986;5.984;2022-12-18T10:10:53;13.70;;;9.80;;
18378;SDS011;27025;51.986;5.984;2022-12-18T10:20:47;16.30;;;12.55;;
18378;SDS011;27025;51.986;5.984;2022-12-18T10:23:33;15.27;;;11.23;;
18378;SDS011;27025;51.986;5.984;2022-12-18T10:28:25;15.77;;;12.90;;
18378;SDS011;27025;51.986;5.984;2022-12-18T10:30:52;15.82;;;12.57;;
18378;SDS011;27025;51.986;5.984;2022-12-18T10:33:22;17.10;;;12.18;;
18378;SDS011;27025;51.986;5.984;2022-12-18T10:35:51;15.15;;;12.13;;
18378;SDS011;27025;51.986;5.984;2022-12-18T10:41:03;15.82;;;11.63;;
18378;SDS011;27025;51.986;5.984;2022-12-18T10:46:12;15.95;;;12.90;;
18378;SDS011;27025;51.986;5.984;2022-12-18T10:48:40;16.00;;;12.55;;
18378;SDS011;27025;51.986;5.984;2022-12-18T10:51:20;15.83;;;12.60;;
18378;SDS011;27025;51.986;5.984;2022-12-18T10:53:50;15.35;;;12.60;;
18378;SDS011;27025;51.986;5.984;2022-12-18T10:56:18;15.32;;;12.32;;
18378;SDS011;27025;51.986;5.984;2022-12-18T10:58:46;17.40;;;10.87;;
18378;SDS011;27025;51.986;5.984;2022-12-18T11:01:21;16.67;;;11.17;;
18378;SDS011;27025;51.986;5.984;2022-12-18T11:06:20;15.30;;;11.95;;
18378;SDS011;27025;51.986;5.984;2022-12-18T11:09:01;16.17;;;13.30;;
18378;SDS011;27025;51.986;5.984;2022-12-18T11:11:28;16.30;;;13.20;;
18378;SDS011;27025;51.986;5.984;2022-12-18T11:14:05;16.75;;;11.82;;
18378;SDS011;27025;51.986;5.984;2022-12-18T11:16:36;15.88;;;12.85;;
18378;SDS011;27025;51.986;5.984;2022-12-18T11:19:37;14.53;;;10.40;;
18378;SDS011;27025;51.986;5.984;2022-12-18T11:21:55;16.30;;;11.95;;
18378;SDS011;27025;51.986;5.984;2022-12-18T11:24:35;16.07;;;10.90;;
18378;SDS011;27025;51.986;5.984;2022-12-18T11:27:02;15.77;;;13.05;;
18378;SDS011;27025;51.986;5.984;2022-12-18T11:29:38;15.23;;;12.55;;
18378;SDS011;27025;51.986;5.984;2022-12-18T11:34:51;14.57;;;10.90;;
18378;SDS011;27025;51.986;5.984;2022-12-18T11:37:19;13.60;;;10.83;;
18378;SDS011;27025;51.986;5.984;2022-12-18T11:40:03;16.02;;;13.00;;
18378;SDS011;27025;51.986;5.984;2022-12-18T11:42:35;16.45;;;13.82;;
18378;SDS011;27025;51.986;5.984;2022-12-18T11:45:08;16.25;;;12.82;;
18378;SDS011;27025;51.986;5.984;2022-12-18T11:50:13;15.47;;;11.33;;
18378;SDS011;27025;51.986;5.984;2022-12-18T11:52:40;17.87;;;12.07;;
18378;SDS011;27025;51.986;5.984;2022-12-18T11:55:14;16.43;;;11.37;;
18378;SDS011;27025;51.986;5.984;2022-12-18T12:00:15;17.13;;;11.07;;
18378;SDS011;27025;51.986;5.984;2022-12-18T12:26:07;15.55;;;12.68;;
18378;SDS011;27025;51.986;5.984;2022-12-18T12:29:13;15.40;;;12.53;;
18378;SDS011;27025;51.986;5.984;2022-12-18T12:37:10;13.33;;;10.43;;
18378;SDS011;27025;51.986;5.984;2022-12-18T12:39:40;16.50;;;12.70;;
18378;SDS011;27025;51.986;5.984;2022-12-18T12:42:13;15.17;;;11.20;;
18378;SDS011;27025;51.986;5.984;2022-12-18T12:44:59;15.33;;;11.10;;
18378;SDS011;27025;51.986;5.984;2022-12-18T12:47:31;16.37;;;11.47;;
18378;SDS011;27025;51.986;5.984;2022-12-18T12:49:58;17.48;;;12.30;;
18378;SDS011;27025;51.986;5.984;2022-12-18T12:54:57;18.47;;;11.27;;
18378;SDS011;27025;51.986;5.984;2022-12-18T12:57:30;15.60;;;11.17;;
18378;SDS011;27025;51.986;5.984;2022-12-18T13:00:10;16.70;;;10.90;;
18378;SDS011;27025;51.986;5.984;2022-12-18T13:02:39;17.50;;;13.05;;
18378;SDS011;27025;51.986;5.984;2022-12-18T13:05:23;17.57;;;11.60;;
18378;SDS011;27025;51.986;5.984;2022-12-18T13:08:08;15.20;;;11.57;;
18378;SDS011;27025;51.986;5.984;2022-12-18T13:10:35;16.37;;;11.07;;
18378;SDS011;27025;51.986;5.984;2022-12-18T13:13:04;16.53;;;10.97;;
18378;SDS011;27025;51.986;5.984;2022-12-18T13:15:32;16.50;;;11.40;;
18378;SDS011;27025;51.986;5.984;2022-12-18T13:18:03;17.13;;;11.20;;
18378;SDS011;27025;51.986;5.984;2022-12-18T13:20:33;17.73;;;10.90;;
18378;SDS011;27025;51.986;5.984;2022-12-18T13:22:59;16.93;;;11.33;;
18378;SDS011;27025;51.986;5.984;2022-12-18T13:25:26;17.88;;;12.48;;
18378;SDS011;27025;51.986;5.984;2022-12-18T13:28:07;16.33;;;13.52;;
18378;SDS011;27025;51.986;5.984;2022-12-18T13:38:21;19.33;;;12.43;;
18378;SDS011;27025;51.986;5.984;2022-12-18T13:45:50;16.40;;;13.68;;
18378;SDS011;27025;51.986;5.984;2022-12-18T13:48:24;17.27;;;13.30;;
18378;SDS011;27025;51.986;5.984;2022-12-18T13:50:53;16.37;;;12.50;;
18378;SDS011;27025;51.986;5.984;2022-12-18T13:53:26;16.45;;;13.70;;
18378;SDS011;27025;51.986;5.984;2022-12-18T13:55:53;17.08;;;13.60;;
18378;SDS011;27025;51.986;5.984;2022-12-18T13:58:19;16.65;;;13.90;;
18378;SDS011;27025;51.986;5.984;2022-12-18T14:00:45;16.80;;;13.77;;
18378;SDS011;27025;51.986;5.984;2022-12-18T14:03:16;17.93;;;13.87;;
18378;SDS011;27025;51.986;5.984;2022-12-18T14:05:43;16.73;;;14.32;;
18378;SDS011;27025;51.986;5.984;2022-12-18T14:08:14;18.05;;;13.88;;
18378;SDS011;27025;51.986;5.984;2022-12-18T14:10:47;17.13;;;14.73;;
18378;SDS011;27025;51.986;5.984;2022-12-18T14:13:23;17.08;;;14.43;;
18378;SDS011;27025;51.986;5.984;2022-12-18T14:15:50;16.67;;;13.77;;
18378;SDS011;27025;51.986;5.984;2022-12-18T14:20:52;17.60;;;14.73;;
18378;SDS011;27025;51.986;5.984;2022-12-18T14:23:33;16.98;;;14.30;;
18378;SDS011;27025;51.986;5.984;2022-12-18T14:26:17;18.90;;;14.38;;
18378;SDS011;27025;51.986;5.984;2022-12-18T14:28:45;17.63;;;14.27;;
18378;SDS011;27025;51.986;5.984;2022-12-18T14:31:18;17.92;;;14.95;;
18378;SDS011;27025;51.986;5.984;2022-12-18T14:33:44;18.85;;;15.23;;
18378;SDS011;27025;51.986;5.984;2022-12-18T14:36:44;19.15;;;15.73;;
18378;SDS011;27025;51.986;5.984;2022-12-18T14:39:04;18.20;;;15.23;;
18378;SDS011;27025;51.986;5.984;2022-12-18T14:41:30;17.50;;;14.63;;
18378;SDS011;27025;51.986;5.984;2022-12-18T14:44:04;33.70;;;24.58;;
18378;SDS011;27025;51.986;5.984;2022-12-18T14:49:02;44.92;;;32.67;;
18378;SDS011;27025;51.986;5.984;2022-12-18T14:51:29;35.10;;;30.00;;
18378;SDS011;27025;51.986;5.984;2022-12-18T14:54:02;25.95;;;22.58;;
18378;SDS011;27025;51.986;5.984;2022-12-18T14:56:29;25.02;;;22.33;;
18378;SDS011;27025;51.986;5.984;2022-12-18T14:58:57;25.70;;;22.88;;
18378;SDS011;27025;51.986;5.984;2022-12-18T15:01:25;26.58;;;20.70;;
18378;SDS011;27025;51.986;5.984;2022-12-18T15:03:52;22.42;;;18.35;;
18378;SDS011;27025;51.986;5.984;2022-12-18T15:06:26;18.98;;;16.13;;
18378;SDS011;27025;51.986;5.984;2022-12-18T15:08:52;20.90;;;13.83;;
18378;SDS011;27025;51.986;5.984;2022-12-18T15:13:51;20.02;;;17.17;;
18378;SDS011;27025;51.986;5.984;2022-12-18T15:16:17;21.90;;;18.08;;
18378;SDS011;27025;51.986;5.984;2022-12-18T15:18:43;22.58;;;19.52;;
18378;SDS011;27025;51.986;5.984;2022-12-18T15:21:10;22.35;;;18.55;;
18378;SDS011;27025;51.986;5.984;2022-12-18T15:26:32;23.80;;;19.40;;
18378;SDS011;27025;51.986;5.984;2022-12-18T15:29:02;22.95;;;17.45;;
18378;SDS011;27025;51.986;5.984;2022-12-18T15:31:29;20.33;;;16.27;;
18378;SDS011;27025;51.986;5.984;2022-12-18T15:36:24;21.00;;;17.98;;
18378;SDS011;27025;51.986;5.984;2022-12-18T15:38:50;20.57;;;17.23;;
18378;SDS011;27025;51.986;5.984;2022-12-18T15:41:18;20.10;;;17.58;;
18378;SDS011;27025;51.986;5.984;2022-12-18T15:43:45;24.70;;;18.45;;
18378;SDS011;27025;51.986;5.984;2022-12-18T15:46:21;26.60;;;19.70;;
18378;SDS011;27025;51.986;5.984;2022-12-18T15:48:48;22.80;;;18.80;;
18378;SDS011;27025;51.986;5.984;2022-12-18T15:53:47;24.27;;;19.42;;
18378;SDS011;27025;51.986;5.984;2022-12-18T15:56:14;23.92;;;19.67;;
18378;SDS011;27025;51.986;5.984;2022-12-18T15:58:59;24.48;;;19.90;;
18378;SDS011;27025;51.986;5.984;2022-12-18T16:01:26;22.77;;;19.40;;
18378;SDS011;27025;51.986;5.984;2022-12-18T16:03:53;23.92;;;19.42;;
18378;SDS011;27025;51.986;5.984;2022-12-18T16:06:20;23.70;;;19.60;;
18378;SDS011;27025;51.986;5.984;2022-12-18T16:08:46;22.80;;;19.05;;
18378;SDS011;27025;51.986;5.984;2022-12-18T16:11:31;22.55;;;19.45;;
18378;SDS011;27025;51.986;5.984;2022-12-18T16:14:04;23.83;;;20.20;;
18378;SDS011;27025;51.986;5.984;2022-12-18T16:16:30;25.83;;;21.00;;
18378;SDS011;27025;51.986;5.984;2022-12-18T16:18:56;28.02;;;21.55;;
18378;SDS011;27025;51.986;5.984;2022-12-18T16:21:22;27.08;;;21.52;;
18378;SDS011;27025;51.986;5.984;2022-12-18T16:23:48;27.75;;;21.17;;
18378;SDS011;27025;51.986;5.984;2022-12-18T16:26:14;27.08;;;22.20;;
18378;SDS011;27025;51.986;5.984;2022-12-18T16:28:40;27.73;;;21.40;;
18378;SDS011;27025;51.986;5.984;2022-12-18T16:31:06;30.23;;;24.00;;
18378;SDS011;27025;51.986;5.984;2022-12-18T16:33:32;32.40;;;27.52;;